Time;durP1;ratioP1;P1;durP2;ratioP2;P2;SDS_P1;SDS_P2;PMS_P1;PMS_P2;Temp;Humidity;BMP_temperature;BMP_pressure;BME280_temperature;BME280_humidity;BME280_pressure;Samples;Min_cycle;Max_cycle;Signal;HPM_P1;HPM_P2
2022/01/09 00:02:01;;;;;;;22.10;11.20;;;;;;;-0.19;87.40;94860.75;1801066;80;21051;-65
2022/01/09 00:04:28;;;;;;;12.90;8.50;;;;;;;-0.18;87.27;94855.56;1800961;80;21502;-65
2022/01/09 00:06:54;;;;;;;12.40;8.20;;;;;;;-0.13;87.55;94855.19;1801177;80;21518;-66
2022/01/09 00:09:21;;;;;;;45.70;22.30;;;;;;;-0.09;87.80;94857.41;1801062;80;21056;-65
2022/01/09 00:11:47;;;;;;;12.97;8.50;;;;;;;-0.08;87.41;94850.91;1800908;80;20965;-65
2022/01/09 00:14:14;;;;;;;11.00;7.60;;;;;;;-0.05;87.28;94851.38;1796026;80;21013;-66
2022/01/09 00:16:40;;;;;;;12.00;7.50;;;;;;;-0.06;87.84;94849.64;1792121;80;21078;-65
2022/01/09 00:19:06;;;;;;;13.87;8.27;;;;;;;-0.09;88.04;94847.89;1792704;80;21012;-65
2022/01/09 00:21:33;;;;;;;14.50;8.20;;;;;;;-0.07;87.88;94852.67;1792777;80;21040;-65
2022/01/09 00:23:59;;;;;;;10.90;7.23;;;;;;;-0.09;88.25;94845.30;1792799;80;21077;-65
2022/01/09 00:26:26;;;;;;;13.07;8.23;;;;;;;-0.08;88.10;94840.97;1792278;80;20985;-65
2022/01/09 00:28:53;;;;;;;11.47;8.03;;;;;;;-0.04;88.03;94842.33;1792789;80;21029;-65
2022/01/09 00:31:19;;;;;;;12.17;8.13;;;;;;;-0.01;87.83;94837.16;1792192;80;21018;-65
2022/01/09 00:33:46;;;;;;;11.87;7.83;;;;;;;0.03;87.68;94840.67;1792410;80;21073;-65
2022/01/09 00:36:13;;;;;;;12.63;7.87;;;;;;;0.05;87.44;94836.77;1792387;80;21025;-66
2022/01/09 00:38:40;;;;;;;11.30;7.27;;;;;;;0.01;87.51;94833.73;1792633;80;21020;-65
2022/01/09 00:41:06;;;;;;;10.17;6.93;;;;;;;0.00;87.29;94836.76;1792273;80;21108;-66
2022/01/09 00:43:35;;;;;;;11.07;7.70;;;;;;;0.01;87.48;94837.19;1792735;80;21006;-65
2022/01/09 00:46:06;;;;;;;14.67;9.03;;;;;;;0.06;87.54;94829.02;1792743;80;21530;-65
2022/01/09 00:48:36;;;;;;;11.63;7.50;;;;;;;0.13;87.56;94833.41;1792766;80;20974;-65
2022/01/09 00:51:03;;;;;;;14.47;9.13;;;;;;;0.10;87.32;94823.42;1792428;80;21009;-66
2022/01/09 00:53:30;;;;;;;10.93;8.47;;;;;;;0.10;87.29;94827.31;1792658;80;21013;-65
2022/01/09 00:55:56;;;;;;;10.90;8.03;;;;;;;0.06;87.18;94821.23;1792567;80;21089;-65
2022/01/09 00:58:25;;;;;;;16.17;8.50;;;;;;;0.07;87.14;94825.99;1792855;80;20981;-65
2022/01/09 01:00:54;;;;;;;15.40;9.23;;;;;;;0.06;87.19;94818.64;1792088;80;21132;-65
2022/01/09 01:03:21;;;;;;;12.73;8.93;;;;;;;0.05;87.08;94819.52;1792887;80;21017;-65
2022/01/09 01:05:48;;;;;;;10.50;8.17;;;;;;;0.08;87.03;94814.78;1792605;80;21113;-65
2022/01/09 01:08:15;;;;;;;12.00;8.73;;;;;;;0.03;87.03;94806.95;1792658;80;21020;-65
2022/01/09 01:10:43;;;;;;;10.20;8.13;;;;;;;-0.02;86.87;94811.23;1792485;80;21093;-65
2022/01/09 01:13:10;;;;;;;10.90;8.20;;;;;;;-0.04;86.87;94810.34;1792450;80;21088;-66
2022/01/09 01:15:37;;;;;;;10.53;7.83;;;;;;;-0.09;86.67;94808.13;1787090;80;21005;-66
2022/01/09 01:18:04;;;;;;;10.17;7.00;;;;;;;-0.09;86.81;94804.25;1787010;80;21045;-65
2022/01/09 01:20:32;;;;;;;11.00;8.10;;;;;;;-0.09;87.04;94802.95;1787032;80;21579;-65
2022/01/09 01:23:00;;;;;;;11.87;7.60;;;;;;;-0.08;87.04;94797.75;1787465;80;21013;-66
2022/01/09 01:25:27;;;;;;;10.97;7.53;;;;;;;-0.04;86.93;94799.97;1786887;80;20986;-65
2022/01/09 01:27:56;;;;;;;14.10;8.77;;;;;;;-0.06;86.77;94796.05;1786848;80;20974;-65
2022/01/09 01:30:22;;;;;;;8.73;6.50;;;;;;;-0.01;86.96;94794.80;1787033;80;21009;-66
2022/01/09 01:32:49;;;;;;;9.13;6.57;;;;;;;-0.01;86.80;94789.62;1787152;80;21460;-66
2022/01/09 01:35:16;;;;;;;8.23;6.17;;;;;;;-0.02;86.74;94786.16;1786771;80;21078;-66
2022/01/09 01:37:42;;;;;;;6.97;5.50;;;;;;;-0.02;86.69;94785.30;1786999;80;21013;-66
2022/01/09 01:40:16;;;;;;;4.87;4.37;;;;;;;-0.13;86.49;94779.98;1787144;80;20970;-65
2022/01/09 01:42:44;;;;;;;7.10;5.50;;;;;;;-0.15;86.50;94775.25;1787069;80;21012;-66
2022/01/09 01:45:12;;;;;;;6.07;5.10;;;;;;;-0.19;86.53;94776.06;1786856;80;21113;-66
2022/01/09 01:47:39;;;;;;;5.87;5.10;;;;;;;-0.17;86.67;94775.66;1787011;80;21077;-65
2022/01/09 01:50:09;;;;;;;6.37;4.90;;;;;;;-0.16;86.71;94776.08;1787053;80;20982;-65
2022/01/09 01:52:41;;;;;;;5.57;5.07;;;;;;;-0.21;86.57;94768.69;1787112;80;20997;-66
2022/01/09 01:55:09;;;;;;;4.83;3.97;;;;;;;-0.26;86.67;94762.16;1786491;80;21089;-65
2022/01/09 01:57:39;;;;;;;6.20;4.97;;;;;;;-0.24;86.71;94763.48;1786997;80;21463;-65
2022/01/09 02:00:11;;;;;;;7.33;5.60;;;;;;;-0.28;86.64;94763.00;1787045;80;21017;-65
2022/01/09 02:02:41;;;;;;;6.33;5.17;;;;;;;-0.30;86.75;94761.71;1786993;80;21487;-65
2022/01/09 02:05:10;;;;;;;7.27;5.57;;;;;;;-0.31;86.92;94757.80;1785893;80;20982;-65
2022/01/09 02:07:38;;;;;;;5.93;5.03;;;;;;;-0.32;87.09;94753.48;1787284;80;21004;-65
2022/01/09 02:10:08;;;;;;;5.10;4.57;;;;;;;-0.34;87.06;94750.00;1787032;80;21066;-65
2022/01/09 02:12:38;;;;;;;6.87;4.90;;;;;;;-0.35;87.25;94745.25;1787182;80;21531;-65
2022/01/09 02:15:30;;;;;;;5.93;5.27;;;;;;;-0.37;87.06;94740.91;1796488;80;21017;-65
2022/01/09 02:17:57;;;;;;;5.97;5.37;;;;;;;-0.34;87.13;94745.67;1796174;80;20993;-65
2022/01/09 02:20:23;;;;;;;10.43;6.53;;;;;;;-0.32;87.05;94737.49;1801077;80;21006;-65
2022/01/09 02:22:50;;;;;;;8.57;6.40;;;;;;;-0.35;86.66;94731.39;1800988;80;21024;-65
2022/01/09 02:25:17;;;;;;;6.67;5.23;;;;;;;-0.40;86.41;94734.37;1800627;80;21069;-65
2022/01/09 02:27:47;;;;;;;6.90;5.63;;;;;;;-0.49;86.70;94726.09;1801106;80;21024;-65
2022/01/09 02:30:15;;;;;;;7.23;5.30;;;;;;;-0.43;87.11;94720.95;1800744;80;21000;-65
2022/01/09 02:32:43;;;;;;;5.80;5.00;;;;;;;-0.35;87.25;94718.03;1800943;80;21558;-65
2022/01/09 02:35:10;;;;;;;6.20;5.20;;;;;;;-0.33;87.18;94713.73;1801207;80;20985;-65
2022/01/09 02:37:37;;;;;;;5.20;4.57;;;;;;;-0.31;87.06;94708.11;1801154;80;21003;-65
2022/01/09 02:40:06;;;;;;;6.77;4.90;;;;;;;-0.30;87.07;94713.76;1800674;80;21052;-65
2022/01/09 02:42:33;;;;;;;5.07;4.33;;;;;;;-0.26;87.17;94707.72;1801163;80;20984;-65
2022/01/09 02:45:01;;;;;;;5.43;4.80;;;;;;;-0.26;86.80;94696.49;1801007;80;21013;-65
2022/01/09 02:47:31;;;;;;;4.63;4.13;;;;;;;-0.29;86.82;94699.92;1800841;80;21085;-65
2022/01/09 02:50:09;;;;;;;5.20;4.70;;;;;;;-0.26;86.87;94706.86;1800816;80;20996;-65
2022/01/09 02:52:35;;;;;;;5.67;4.57;;;;;;;-0.25;86.90;94712.07;1799370;80;20997;-65
2022/01/09 02:55:12;;;;;;;5.77;4.70;;;;;;;-0.26;86.80;94698.65;1800041;80;21056;-65
2022/01/09 02:57:45;;;;;;;5.40;4.87;;;;;;;-0.24;86.72;94693.48;1800966;80;21002;-65
2022/01/09 03:00:18;;;;;;;;;;;;;;;-0.27;86.62;94686.55;1803564;80;20953;-65
2022/01/09 03:02:45;;;;;;;5.83;5.10;;;;;;;-0.22;86.80;94690.48;1800657;80;20100;-65
2022/01/09 03:05:12;;;;;;;5.50;4.60;;;;;;;-0.28;86.26;94683.94;1801246;80;20972;-65
2022/01/09 03:07:41;;;;;;;5.50;4.73;;;;;;;-0.30;86.35;94685.24;1801057;80;20992;-65
2022/01/09 03:10:10;;;;;;;6.10;4.83;;;;;;;-0.32;86.23;94676.58;1801142;80;21039;-65
2022/01/09 03:12:39;;;;;;;6.07;4.83;;;;;;;-0.31;86.63;94669.23;1801122;80;21547;-65
2022/01/09 03:15:08;;;;;;;6.07;5.00;;;;;;;-0.35;86.59;94661.01;1792860;80;21037;-65
2022/01/09 03:17:35;;;;;;;6.50;5.13;;;;;;;-0.39;86.46;94668.31;1787159;80;21013;-65
2022/01/09 03:20:05;;;;;;;13.57;8.77;;;;;;;-0.47;86.08;94669.54;1787181;80;21005;-65
2022/01/09 03:22:32;;;;;;;7.67;5.93;;;;;;;-0.45;86.67;94675.61;1787186;80;21502;-65
2022/01/09 03:24:58;;;;;;;7.60;5.43;;;;;;;-0.35;86.93;94678.26;1787537;80;20973;-65
2022/01/09 03:27:25;;;;;;;5.87;5.23;;;;;;;-0.36;86.50;94683.88;1787282;80;21006;-65
2022/01/09 03:29:52;;;;;;;7.47;5.77;;;;;;;-0.44;86.31;94672.59;1787164;80;20993;-65
2022/01/09 03:32:21;;;;;;;14.43;9.23;;;;;;;-0.46;86.25;94676.45;1786749;80;21005;-65
2022/01/09 03:34:48;;;;;;;18.70;11.70;;;;;;;-0.44;86.76;94676.04;1787341;80;21472;-65
2022/01/09 03:37:17;;;;;;;29.13;16.90;;;;;;;-0.46;86.66;94670.41;1786862;80;21013;-65
2022/01/09 03:39:44;;;;;;;28.03;16.73;;;;;;;-0.38;87.03;94661.39;1787359;80;20997;-65
2022/01/09 03:42:12;;;;;;;37.43;20.43;;;;;;;-0.30;87.34;94681.79;1787238;80;21032;-65
2022/01/09 03:44:39;;;;;;;36.50;20.97;;;;;;;-0.27;87.01;94678.78;1786879;80;21090;-65
2022/01/09 03:47:06;;;;;;;34.60;19.20;;;;;;;-0.25;86.62;94675.78;1787152;80;21056;-65
2022/01/09 03:49:32;;;;;;;36.80;20.63;;;;;;;-0.34;86.07;94683.47;1786779;80;21101;-65
2022/01/09 03:52:00;;;;;;;33.80;19.57;;;;;;;-0.39;85.99;94694.22;1787351;80;21420;-65
2022/01/09 03:54:28;;;;;;;35.17;20.03;;;;;;;-0.39;85.99;94690.77;1786961;80;21023;-65
2022/01/09 03:56:55;;;;;;;37.57;20.93;;;;;;;-0.42;86.24;94697.23;1786816;80;21058;-65
2022/01/09 03:59:23;;;;;;;36.67;20.53;;;;;;;-0.43;86.39;94691.16;1786856;80;21139;-65
2022/01/09 04:01:50;;;;;;;34.17;20.37;;;;;;;-0.47;86.23;94685.09;1786921;80;21548;-69
2022/01/09 04:04:17;;;;;;;34.97;20.93;;;;;;;-0.46;86.68;94682.06;1786789;80;21092;-65
2022/01/09 04:06:50;;;;;;;35.10;19.30;;;;;;;-0.46;86.60;94682.06;1787263;80;21475;-65
2022/01/09 04:09:26;;;;;;;35.17;19.33;;;;;;;-0.48;86.62;94689.84;1784784;80;21140;-65
2022/01/09 04:11:49;;;;;;;37.03;20.57;;;;;;;-0.46;86.64;94678.17;1785509;80;21033;-65
2022/01/09 04:14:16;;;;;;;34.43;20.13;;;;;;;-0.47;86.76;94678.61;1788914;80;20998;-65
2022/01/09 04:16:43;;;;;;;38.03;20.50;;;;;;;-0.48;86.50;94686.36;1801079;80;21055;-65
2022/01/09 04:19:12;;;;;;;32.80;19.33;;;;;;;-0.55;86.51;94688.05;1800880;80;21016;-66
2022/01/09 04:21:37;;;;;;;34.93;20.97;;;;;;;-0.56;86.62;94683.70;1800694;80;21109;-65
2022/01/09 04:24:05;;;;;;;36.50;19.67;;;;;;;-0.57;86.85;94687.16;1801340;80;21004;-65
2022/01/09 04:26:31;;;;;;;33.97;20.30;;;;;;;-0.57;86.87;94686.30;1800762;80;21072;-65
2022/01/09 04:28:58;;;;;;;34.33;20.00;;;;;;;-0.55;86.91;94681.56;1801262;80;20969;-65
2022/01/09 04:31:24;;;;;;;34.47;20.33;;;;;;;-0.45;87.15;94683.82;1801219;80;21046;-65
2022/01/09 04:33:51;;;;;;;33.53;18.87;;;;;;;-0.49;86.76;94676.42;1801135;80;20973;-65
2022/01/09 04:36:17;;;;;;;35.23;19.53;;;;;;;-0.52;86.79;94666.04;1801256;80;21474;-65
2022/01/09 04:38:44;;;;;;;35.03;19.00;;;;;;;-0.47;86.88;94676.02;1801056;80;21015;-65
2022/01/09 04:41:10;;;;;;;35.77;19.97;;;;;;;-0.54;86.33;94689.77;1801138;80;21020;-65
2022/01/09 04:43:37;;;;;;;32.27;19.57;;;;;;;-0.61;86.23;94685.81;1800745;80;21626;-65
2022/01/09 04:46:04;;;;;;;33.23;20.23;;;;;;;-0.60;86.80;94681.09;1800712;80;21084;-65
2022/01/09 04:48:30;;;;;;;34.47;20.07;;;;;;;-0.61;86.61;94685.81;1801109;80;21493;-65
2022/01/09 04:50:58;;;;;;;32.67;19.33;;;;;;;-0.57;86.97;94686.30;1801222;80;21015;-65
2022/01/09 04:53:25;;;;;;;30.90;18.23;;;;;;;-0.64;86.80;94678.88;1801009;80;21008;-66
2022/01/09 04:55:51;;;;;;;31.00;17.53;;;;;;;-0.65;86.94;94679.75;1801179;80;20969;-65
2022/01/09 04:58:19;;;;;;;78.67;41.83;;;;;;;-0.70;86.49;94695.67;1801361;80;21111;-65
2022/01/09 05:00:45;;;;;;;58.33;33.07;;;;;;;-0.75;86.47;94689.15;1800972;80;21000;-65
2022/01/09 05:03:14;;;;;;;49.30;27.10;;;;;;;-0.72;86.79;94689.60;1800836;80;20992;-65
2022/01/09 05:05:41;;;;;;;50.30;28.40;;;;;;;-0.68;87.14;94684.47;1801176;80;20989;-65
2022/01/09 05:08:08;;;;;;;39.97;21.73;;;;;;;-0.64;87.17;94684.50;1800804;80;21016;-65
2022/01/09 05:10:34;;;;;;;34.17;19.50;;;;;;;-0.61;87.26;94686.67;1801171;80;21485;-65
2022/01/09 05:13:05;;;;;;;31.70;17.97;;;;;;;-0.58;87.31;94677.66;1800993;80;21486;-65
2022/01/09 05:15:31;;;;;;;27.57;16.23;;;;;;;-0.54;87.22;94682.00;1796539;80;21036;-65
2022/01/09 05:18:01;;;;;;;22.77;14.47;;;;;;;-0.50;87.14;94681.18;1792498;80;21036;-65
2022/01/09 05:20:27;;;;;;;25.60;15.03;;;;;;;-0.56;86.60;94682.41;1792439;80;21089;-65
2022/01/09 05:22:54;;;;;;;25.80;15.27;;;;;;;-0.67;86.16;94673.24;1792607;80;21109;-65
2022/01/09 05:25:20;;;;;;;26.50;15.73;;;;;;;-0.75;86.28;94676.20;1792788;80;21020;-65
2022/01/09 05:27:47;;;;;;;29.60;15.33;;;;;;;-0.80;86.68;94667.95;1792618;80;21040;-65
2022/01/09 05:30:14;;;;;;;36.00;18.97;;;;;;;-0.84;86.94;94672.20;1792563;80;20973;-65
2022/01/09 05:32:44;;;;;;;31.17;17.20;;;;;;;-0.83;87.01;94677.85;1792243;80;21148;-65
2022/01/09 05:35:14;;;;;;;38.23;20.33;;;;;;;-0.88;86.75;94669.16;1792503;80;21096;-65
2022/01/09 05:37:40;;;;;;;39.30;20.33;;;;;;;-0.90;86.63;94673.02;1792390;80;21080;-65
2022/01/09 05:40:09;;;;;;;97.83;36.83;;;;;;;-0.86;86.84;94682.97;1792815;80;20977;-65
2022/01/09 05:42:35;;;;;;;69.37;30.33;;;;;;;-0.90;86.69;94673.02;1792596;80;21021;-65
2022/01/09 05:45:03;;;;;;;48.87;22.83;;;;;;;-0.88;87.20;94677.80;1792856;80;21013;-65
2022/01/09 05:47:30;;;;;;;33.60;17.97;;;;;;;-0.81;87.44;94672.66;1792246;80;20978;-65
2022/01/09 05:49:56;;;;;;;34.00;17.53;;;;;;;-0.78;87.40;94672.69;1792625;80;20989;-65
2022/01/09 05:52:22;;;;;;;28.97;16.27;;;;;;;-0.80;87.15;94667.95;1792825;80;20969;-65
2022/01/09 05:54:49;;;;;;;29.80;16.17;;;;;;;-0.82;87.15;94660.58;1792358;80;21009;-64
2022/01/09 05:57:15;;;;;;;31.33;17.17;;;;;;;-0.78;87.36;94659.34;1792811;80;20962;-65
2022/01/09 05:59:42;;;;;;;43.53;20.03;;;;;;;-0.80;86.95;94658.87;1792750;80;20965;-65
2022/01/09 06:02:08;;;;;;;49.20;21.17;;;;;;;-0.84;87.07;94664.88;1792590;80;21562;-65
2022/01/09 06:04:35;;;;;;;42.77;19.57;;;;;;;-0.86;87.10;94660.95;1792479;80;21013;-65
2022/01/09 06:07:01;;;;;;;32.73;16.67;;;;;;;-0.87;87.41;94666.58;1792756;80;20977;-65
2022/01/09 06:09:28;;;;;;;25.80;14.63;;;;;;;-0.84;87.40;94679.12;1792370;80;21005;-65
2022/01/09 06:11:54;;;;;;;26.13;14.67;;;;;;;-0.79;87.50;94681.33;1792593;80;21010;-64
2022/01/09 06:14:21;;;;;;;26.23;15.27;;;;;;;-0.79;87.08;94688.66;1792603;80;20985;-65
2022/01/09 06:16:47;;;;;;;28.10;15.60;;;;;;;-0.78;87.29;94689.13;1787449;80;20966;-65
2022/01/09 06:19:14;;;;;;;31.77;16.93;;;;;;;-0.77;87.31;94689.55;1787058;80;21032;-65
2022/01/09 06:21:44;;;;;;;28.07;14.87;;;;;;;-0.70;87.63;94690.49;1787093;80;21065;-65
2022/01/09 06:24:11;;;;;;;24.17;14.17;;;;;;;-0.67;87.45;94687.49;1787078;80;21021;-65
2022/01/09 06:26:37;;;;;;;23.67;14.03;;;;;;;-0.66;87.26;94687.95;1787355;80;21037;-65
2022/01/09 06:29:04;;;;;;;26.87;14.00;;;;;;;-0.62;87.40;94690.13;1787197;80;21459;-65
2022/01/09 06:31:30;;;;;;;23.40;13.47;;;;;;;-0.60;87.25;94694.91;1787061;80;21014;-64
2022/01/09 06:34:01;;;;;;;21.87;12.57;;;;;;;-0.51;87.47;94688.93;1787054;80;20989;-65
2022/01/09 06:36:27;;;;;;;22.13;13.77;;;;;;;-0.48;87.30;94680.77;1785852;80;21507;-65
2022/01/09 06:38:54;;;;;;;23.13;14.40;;;;;;;-0.41;87.26;94684.27;1787415;80;21021;-65
2022/01/09 06:41:20;;;;;;;23.40;15.30;;;;;;;-0.46;86.52;94682.92;1787252;80;21005;-65
2022/01/09 06:43:49;;;;;;;41.67;24.90;;;;;;;-0.48;86.31;94687.66;1787151;80;21006;-65
2022/01/09 06:46:15;;;;;;;32.20;17.63;;;;;;;-0.55;85.97;94694.95;1786918;80;21005;-65
2022/01/09 06:48:44;;;;;;;27.03;16.47;;;;;;;-0.62;85.97;94692.72;1786718;80;21006;-65
2022/01/09 06:51:10;;;;;;;38.63;19.80;;;;;;;-0.65;86.09;94700.47;1786633;80;21006;-67
2022/01/09 06:53:40;;;;;;;26.87;15.40;;;;;;;-0.63;86.37;94693.59;1787438;80;20974;-65
2022/01/09 06:56:07;;;;;;;29.00;15.60;;;;;;;-0.49;87.01;94684.64;1787328;80;21048;-65
2022/01/09 06:58:38;;;;;;;26.40;15.30;;;;;;;-0.35;86.97;94682.15;1787294;80;20993;-65
2022/01/09 07:01:05;;;;;;;21.03;11.87;;;;;;;-0.28;87.06;94687.83;1787279;80;21041;-65
2022/01/09 07:03:32;;;;;;;23.07;13.40;;;;;;;-0.17;86.87;94690.53;1787085;80;21029;-65
2022/01/09 07:05:58;;;;;;;23.30;14.07;;;;;;;-0.14;86.68;94691.41;1786849;80;21010;-65
2022/01/09 07:08:31;;;;;;;25.53;14.67;;;;;;;-0.16;86.12;94685.77;1787036;80;21061;-65
2022/01/09 07:10:56;;;;;;;27.50;14.43;;;;;;;-0.28;85.51;94691.31;1787149;80;21463;-65
2022/01/09 07:13:23;;;;;;;24.80;14.40;;;;;;;-0.33;85.61;94689.11;1787183;80;21049;-65
2022/01/09 07:15:51;;;;;;;20.50;12.80;;;;;;;-0.32;85.69;94688.68;1787260;80;21056;-65
2022/01/09 07:18:18;;;;;;;20.73;13.30;;;;;;;-0.36;85.53;94683.02;1786678;80;21057;-65
2022/01/09 07:20:44;;;;;;;24.90;14.43;;;;;;;-0.40;85.50;94686.42;1786916;80;21563;-65
2022/01/09 07:23:11;;;;;;;26.40;17.70;;;;;;;-0.39;85.59;94692.06;1787315;80;21021;-65
2022/01/09 07:25:37;;;;;;;23.77;15.07;;;;;;;-0.35;85.66;94691.22;1787263;80;21033;-65
2022/01/09 07:28:04;;;;;;;25.60;16.57;;;;;;;-0.39;85.56;94683.00;1787165;80;21013;-65
2022/01/09 07:30:31;;;;;;;26.07;15.63;;;;;;;-0.38;86.00;94683.42;1787355;80;20974;-65
2022/01/09 07:33:05;;;;;;;30.07;17.03;;;;;;;-0.29;86.16;94682.22;1786921;80;21101;-65
2022/01/09 07:35:33;;;;;;;30.67;18.17;;;;;;;-0.18;86.48;94683.16;1787039;80;21009;-65
2022/01/09 07:38:00;;;;;;;28.37;17.27;;;;;;;-0.10;86.10;94685.41;1787305;80;21048;-65
2022/01/09 07:40:28;;;;;;;27.23;16.70;;;;;;;-0.12;85.48;94687.11;1787170;80;21033;-66
2022/01/09 07:42:56;;;;;;;26.13;16.13;;;;;;;-0.06;85.80;94685.84;1787329;80;20989;-66
2022/01/09 07:45:27;;;;;;;26.47;16.17;;;;;;;-0.04;85.51;94684.14;1786434;80;21144;-66
2022/01/09 07:47:57;;;;;;;24.33;14.83;;;;;;;0.05;85.44;94683.75;1787226;80;21041;-66
2022/01/09 07:50:27;;;;;;;22.83;14.40;;;;;;;0.05;85.03;94689.84;1787055;80;20981;-66
2022/01/09 07:52:56;;;;;;;21.30;13.53;;;;;;;0.11;85.43;94684.67;1787188;80;21557;-65
2022/01/09 07:55:23;;;;;;;20.70;12.70;;;;;;;0.19;85.20;94675.64;1787042;80;21025;-65
2022/01/09 07:57:51;;;;;;;21.97;12.60;;;;;;;0.27;84.85;94687.36;1787477;80;21053;-66
2022/01/09 08:00:19;;;;;;;22.27;13.07;;;;;;;0.34;85.12;94687.41;1787177;80;21005;-65
2022/01/09 08:02:47;;;;;;;21.37;13.60;;;;;;;0.35;84.56;94681.38;1787191;80;20982;-66
2022/01/09 08:05:16;;;;;;;23.20;13.43;;;;;;;0.38;84.34;94681.39;1786737;80;21013;-65
2022/01/09 08:07:43;;;;;;;23.27;13.17;;;;;;;0.42;84.02;94693.50;1787240;80;20962;-66
2022/01/09 08:10:12;;;;;;;23.00;13.20;;;;;;;0.25;83.33;94687.78;1786889;80;21056;-66
2022/01/09 08:12:38;;;;;;;22.13;13.07;;;;;;;0.23;83.68;94687.79;1787075;80;21078;-66
2022/01/09 08:15:13;;;;;;;21.37;13.17;;;;;;;0.21;83.91;94690.80;1787123;80;20993;-66
2022/01/09 08:17:45;;;;;;;21.93;12.23;;;;;;;0.23;83.92;94689.48;1786577;80;21515;-66
2022/01/09 08:20:14;;;;;;;24.80;13.70;;;;;;;0.31;83.94;94694.33;1786843;80;20996;-66
2022/01/09 08:22:43;;;;;;;23.80;12.70;;;;;;;0.29;83.64;94688.25;1787066;80;21040;-66
2022/01/09 08:25:15;;;;;;;19.13;11.43;;;;;;;0.22;83.59;94695.11;1786627;80;21131;-65
2022/01/09 08:27:43;;;;;;;21.20;12.63;;;;;;;0.22;83.90;94693.81;1787265;80;20989;-66
2022/01/09 08:30:11;;;;;;;20.60;12.70;;;;;;;0.26;83.83;94694.72;1786994;80;20982;-66
2022/01/09 08:32:39;;;;;;;22.87;13.73;;;;;;;0.25;83.75;94682.16;1787260;80;21467;-65
2022/01/09 08:35:08;;;;;;;22.93;13.57;;;;;;;0.19;83.64;94684.72;1787001;80;21013;-66
2022/01/09 08:37:34;;;;;;;27.83;14.53;;;;;;;0.14;83.43;94677.34;1787146;80;20977;-66
2022/01/09 08:40:01;;;;;;;26.53;14.93;;;;;;;0.09;83.55;94679.04;1787211;80;21010;-66
2022/01/09 08:42:27;;;;;;;26.23;13.87;;;;;;;-0.02;83.60;94674.65;1787255;80;21001;-66
2022/01/09 08:44:57;;;;;;;23.97;13.40;;;;;;;0.01;84.02;94675.53;1786786;80;21128;-65
2022/01/09 08:47:29;;;;;;;28.37;15.27;;;;;;;0.06;84.34;94677.30;1786637;80;20994;-65
2022/01/09 08:49:55;;;;;;;31.27;16.30;;;;;;;0.09;84.13;94677.30;1786896;80;20985;-65
2022/01/09 08:52:22;;;;;;;30.67;16.23;;;;;;;0.08;83.96;94674.72;1786973;80;21018;-66
2022/01/09 08:54:50;;;;;;;26.87;14.87;;;;;;;0.01;83.85;94676.83;1787114;80;21025;-66
2022/01/09 08:57:17;;;;;;;26.43;14.57;;;;;;;-0.07;84.12;94684.12;1787277;80;21069;-66
2022/01/09 08:59:46;;;;;;;22.77;13.80;;;;;;;-0.12;84.23;94682.36;1787080;80;21017;-66
2022/01/09 09:02:16;;;;;;;30.37;15.43;;;;;;;-0.22;83.70;94678.39;1786796;80;21079;-65
2022/01/09 09:04:44;;;;;;;30.60;15.10;;;;;;;-0.32;84.26;94675.72;1786935;80;21495;-66
2022/01/09 09:07:11;;;;;;;28.53;14.60;;;;;;;-0.36;84.76;94680.42;1786403;80;21117;-65
2022/01/09 09:09:38;;;;;;;29.97;14.77;;;;;;;-0.32;85.25;94677.88;1787097;80;21017;-66
2022/01/09 09:12:08;;;;;;;28.30;15.53;;;;;;;-0.26;85.18;94675.31;1786720;80;20982;-65
2022/01/09 09:14:34;;;;;;;27.20;14.73;;;;;;;-0.30;85.09;94676.61;1787183;80;21567;-65
2022/01/09 09:17:01;;;;;;;29.43;14.33;;;;;;;-0.26;85.30;94678.34;1796268;80;21570;-65
2022/01/09 09:19:28;;;;;;;28.20;14.07;;;;;;;-0.13;85.38;94678.02;1800515;80;20986;-65
2022/01/09 09:21:56;;;;;;;29.37;15.17;;;;;;;-0.17;84.89;94684.91;1800689;80;21060;-66
2022/01/09 09:24:24;;;;;;;25.80;14.17;;;;;;;-0.24;84.97;94687.87;1801235;80;21028;-66
2022/01/09 09:26:51;;;;;;;28.70;13.77;;;;;;;-0.20;85.13;94681.00;1800534;80;21064;-66
2022/01/09 09:29:18;;;;;;;26.83;13.80;;;;;;;-0.17;85.09;94681.02;1801179;80;21024;-66
2022/01/09 09:31:45;;;;;;;29.77;15.57;;;;;;;-0.13;84.91;94681.90;1800785;80;21013;-66
2022/01/09 09:34:11;;;;;;;27.30;16.13;;;;;;;-0.08;85.06;94679.77;1800724;80;21016;-66
2022/01/09 09:36:38;;;;;;;27.30;15.17;;;;;;;-0.05;84.81;94681.12;1800745;80;21008;-66
2022/01/09 09:39:07;;;;;;;28.63;15.53;;;;;;;-0.02;85.05;94672.49;1801126;80;20965;-66
2022/01/09 09:41:36;;;;;;;30.17;15.57;;;;;;;-0.08;84.44;94681.06;1800909;80;21602;-66
2022/01/09 09:44:05;;;;;;;24.43;12.63;;;;;;;-0.15;84.42;94683.20;1801237;80;21035;-65
2022/01/09 09:46:32;;;;;;;25.43;14.10;;;;;;;-0.16;84.59;94682.75;1800983;80;21029;-65
2022/01/09 09:49:03;;;;;;;25.97;13.90;;;;;;;-0.12;84.72;94675.44;1801030;80;21041;-65
2022/01/09 09:51:32;;;;;;;27.47;13.70;;;;;;;-0.06;84.98;94670.72;1800813;80;21044;-65
2022/01/09 09:54:01;;;;;;;24.63;13.53;;;;;;;0.07;85.24;94665.19;1801130;80;21462;-65
2022/01/09 09:56:27;;;;;;;23.17;13.30;;;;;;;0.16;84.80;94661.37;1800767;80;21005;-66
2022/01/09 09:58:59;;;;;;;23.00;13.07;;;;;;;0.23;84.54;94659.66;1801011;80;21032;-65
2022/01/09 10:01:30;;;;;;;26.20;15.10;;;;;;;0.37;84.62;94655.42;1801271;80;20997;-66
2022/01/09 10:04:08;;;;;;;30.43;15.87;;;;;;;0.48;83.64;94646.38;1801162;80;20980;-66
2022/01/09 10:06:42;;;;;;;24.63;13.63;;;;;;;0.53;83.49;94639.48;1800632;80;21012;-66
2022/01/09 10:09:16;;;;;;;32.70;17.00;;;;;;;0.60;83.71;94634.33;1800761;80;21012;-66
2022/01/09 10:11:56;;;;;;;39.80;20.60;;;;;;;0.63;83.01;94621.79;1800541;80;20981;-66
2022/01/09 10:14:29;;;;;;;40.20;21.47;;;;;;;0.68;83.11;94620.11;1800976;80;20997;-66
2022/01/09 10:17:13;;;;;;;45.65;23.50;;;;;;;0.63;82.33;94628.28;1800908;80;21580;-66
2022/01/09 10:19:47;;;;;;;38.93;20.70;;;;;;;0.54;82.04;94629.13;1800851;80;21024;-66
2022/01/09 10:22:36;;;;;;;42.07;20.87;;;;;;;0.61;82.81;94637.81;1800870;80;21032;-66
2022/01/09 10:25:30;;;;;;;36.30;17.73;;;;;;;0.61;82.38;94641.27;1801013;80;21487;-66
2022/01/09 10:28:05;;;;;;;30.87;16.43;;;;;;;0.54;82.45;94631.72;1800976;80;21065;-66
2022/01/09 10:30:38;;;;;;;36.17;16.63;;;;;;;0.58;82.60;94630.88;1800834;80;21036;-66
2022/01/09 10:33:15;;;;;;;33.83;17.17;;;;;;;0.55;82.24;94629.98;1801145;80;21052;-66
2022/01/09 10:35:45;;;;;;;30.50;15.43;;;;;;;0.59;82.78;94631.30;1800837;80;21100;-68
2022/01/09 10:38:17;;;;;;;36.07;17.87;;;;;;;0.67;82.68;94624.84;1801024;80;21000;-66
2022/01/09 10:40:54;;;;;;;35.25;18.50;;;;;;;0.74;82.65;94625.74;1800861;80;21053;-66
2022/01/09 10:43:21;;;;;;;31.90;15.17;;;;;;;0.67;82.04;94619.66;1798992;80;20969;-66
2022/01/09 10:46:01;;;;;;;28.97;13.00;;;;;;;0.70;82.13;94621.39;1800599;80;21089;-66
2022/01/09 10:48:43;;;;;;;25.17;12.93;;;;;;;0.62;81.84;94614.88;1801194;80;21052;-65
2022/01/09 10:51:13;;;;;;;25.27;12.97;;;;;;;0.47;82.00;94624.77;1800705;80;21072;-65
2022/01/09 10:53:46;;;;;;;23.67;12.53;;;;;;;0.41;82.12;94621.72;1801049;80;20981;-65
2022/01/09 10:56:25;;;;;;;22.93;11.65;;;;;;;0.29;82.30;94629.44;1801246;80;21013;-66
2022/01/09 10:58:56;;;;;;;21.30;12.13;;;;;;;0.23;82.89;94623.34;1800828;80;21012;-65
2022/01/09 11:01:30;;;;;;;26.20;13.57;;;;;;;0.31;83.30;94616.05;1801070;80;21013;-66
2022/01/09 11:04:06;;;;;;;25.80;13.70;;;;;;;0.35;83.14;94610.02;1800967;80;20969;-65
2022/01/09 11:06:36;;;;;;;23.10;11.93;;;;;;;0.38;83.11;94606.58;1800957;80;20973;-65
2022/01/09 11:09:06;;;;;;;24.30;12.47;;;;;;;0.45;83.06;94606.16;1801415;80;21019;-65
2022/01/09 11:11:39;;;;;;;23.27;12.50;;;;;;;0.48;82.89;94606.16;1800783;80;21077;-65
2022/01/09 11:14:11;;;;;;;21.07;12.00;;;;;;;0.52;82.91;94600.98;1801205;80;21500;-65
2022/01/09 11:16:44;;;;;;;24.23;12.43;;;;;;;0.63;82.88;94604.91;1798484;80;21025;-66
2022/01/09 11:19:14;;;;;;;24.13;12.73;;;;;;;0.69;82.28;94600.20;1792467;80;20997;-65
2022/01/09 11:21:47;;;;;;;26.57;13.10;;;;;;;0.69;82.03;94597.16;1792869;80;21054;-66
2022/01/09 11:24:38;;;;;;;24.40;13.17;;;;;;;0.76;82.25;94598.06;1792740;80;21523;-66
2022/01/09 11:27:38;;;;;;;26.13;13.37;;;;;;;0.85;82.18;94599.36;1792853;80;21037;-66
2022/01/09 11:30:17;;;;;;;22.67;12.27;;;;;;;0.93;81.76;94595.48;1792718;80;20973;-66
2022/01/09 11:33:23;;;;;;;22.33;12.33;;;;;;;0.84;81.12;94593.75;1792561;80;21060;-66